Carolyn — 9V2368 — position and weather

sailwx.info

Track history (hours):
 
Tides and Currents Weather Stations Pressure Air Temp Water Temp Dewpoint Dewpoint Depression Visibility Wind Speed Wind Dir Waves Ship Positions

Carolyn

Last reported at 2017-Aug-22 21:06 UTC. Time now 2017-Sep-24 08:46 UTC.
Position S 32°35' E 152°42'.
Warning: this ship's position is 32 days out of date.

Length 189 m; draft 12.4 m.

Type: Cargo ship. MMSI: 564576000.

Date/timePositionNaut miles runAvg speedWind from/ knotsBaromVisibWave heightAir tempDewpointWater temp
2017-Aug-22 21:06S 32°35' E 152°42'111.1
2017-Aug-22 21:00S 32°35' E 152°41'511.1
2017-Aug-22 20:31S 32°38' E 152°35'510.9
2017-Aug-22 20:01S 32°41' E 152°30'510.6
2017-Aug-22 19:30S 32°45' E 152°25'510.7
2017-Aug-22 19:01S 32°48' E 152°20'510.5
2017-Aug-22 18:30S 32°51' E 152°15'510.1
2017-Aug-22 18:01S 32°54' E 152°10'510.1
2017-Aug-22 17:30S 32°56' E 152°05'510.1
2017-Aug-22 17:00S 32°57' E 151°59'510.8
2017-Aug-22 16:30S 32°57' E 151°52'4 7.6
2017-Aug-22 16:00S 32°55' E 151°48'2 3.6
2017-Aug-22 15:30S 32°54' E 151°46'0 0.3
2017-Aug-22 14:52S 32°54' E 151°46'0 0.0
2017-Aug-22 14:28S 32°54' E 151°46'0 0.0
2017-Aug-22 13:22S 32°54' E 151°46'0 0.0
2017-Aug-22 12:58S 32°54' E 151°46'0 0.0
2017-Aug-22 12:28S 32°54' E 151°46'0 0.0
2017-Aug-22 11:58S 32°54' E 151°46'0 0.0
2017-Aug-22 11:28S 32°54' E 151°46'0 0.0
2017-Aug-22 10:58S 32°54' E 151°46'0 0.0
2017-Aug-22 10:22S 32°54' E 151°46'0 0.0
2017-Aug-22 09:58S 32°54' E 151°46'0 0.0
2017-Aug-22 09:16S 32°54' E 151°46'0 0.0
2017-Aug-22 08:58S 32°54' E 151°46'0 0.0
2017-Aug-22 08:22S 32°54' E 151°46'0 0.0
2017-Aug-22 07:46S 32°54' E 151°46'0 0.0
2017-Aug-22 07:22S 32°54' E 151°46'0 0.0
2017-Aug-22 06:58S 32°54' E 151°46'0 0.0
2017-Aug-22 06:28S 32°54' E 151°46'0 0.0
2017-Aug-22 05:58S 32°54' E 151°46'0 0.0
2017-Aug-22 05:28S 32°54' E 151°46'0 0.0
2017-Aug-22 04:58S 32°54' E 151°46'0 0.0
2017-Aug-22 03:04S 32°54' E 151°46'0 0.0
2017-Aug-22 02:58S 32°54' E 151°46'0 0.0
2017-Aug-22 02:28S 32°54' E 151°46'0 0.0
2017-Aug-22 01:55S 32°54' E 151°46'0 0.0
2017-Aug-22 01:25S 32°54' E 151°46'0 0.0
2017-Aug-22 00:58S 32°54' E 151°46'0 0.0
2017-Aug-22 00:28S 32°54' E 151°46'0 0.0
2017-Aug-21 23:58S 32°54' E 151°46'0 0.0
2017-Aug-21 23:28S 32°54' E 151°46'0 0.0
2017-Aug-21 22:49S 32°54' E 151°46'0 0.0
2017-Aug-21 22:28S 32°54' E 151°46'0 0.0
2017-Aug-21 21:58S 32°54' E 151°46'0 0.0
2017-Aug-21 21:28S 32°54' E 151°46'0 0.0
2017-Aug-21 20:58S 32°54' E 151°46'0 0.0
2017-Aug-21 20:28S 32°54' E 151°46'0 0.0
2017-Aug-21 19:58S 32°54' E 151°46'0 0.0
2017-Aug-21 19:28S 32°54' E 151°46'0 0.0
2017-Aug-21 18:58S 32°54' E 151°46'0 0.0
2017-Aug-21 18:28S 32°54' E 151°46'0 0.0
2017-Aug-21 17:58S 32°54' E 151°46'0 0.0
2017-Aug-21 17:25S 32°54' E 151°46'0 0.0
2017-Aug-21 16:58S 32°54' E 151°46'0 0.0
2017-Aug-21 16:28S 32°54' E 151°46'0 0.0
2017-Aug-21 15:58S 32°54' E 151°46'0 0.0
2017-Aug-21 15:28S 32°54' E 151°46'0 0.0
2017-Aug-21 14:58S 32°54' E 151°46'0 0.0
2017-Aug-21 14:28S 32°54' E 151°46'0 0.0
2017-Aug-21 13:58S 32°54' E 151°46'0 0.0
2017-Aug-21 13:28S 32°54' E 151°46'0 0.0
2017-Aug-21 12:58S 32°54' E 151°46'0 0.0
2017-Aug-21 12:28S 32°54' E 151°46'0 0.0
2017-Aug-21 11:58S 32°54' E 151°46'0 0.0
2017-Aug-21 11:28S 32°54' E 151°46'0 0.0
2017-Aug-21 10:58S 32°54' E 151°46'0 0.0
2017-Aug-21 10:28S 32°54' E 151°46'0 0.0
2017-Aug-21 09:58S 32°54' E 151°46'0 0.0
2017-Aug-21 09:28S 32°54' E 151°46'0 0.0
2017-Aug-21 08:58S 32°54' E 151°46'0 0.0
2017-Aug-21 08:28S 32°54' E 151°46'0 0.3
2017-Aug-21 08:00S 32°54' E 151°46'2 4.4
2017-Aug-21 07:30S 32°55' E 151°49'4 8.0
2017-Aug-21 07:00S 32°58' E 151°52'2 4.7
2017-Aug-21 06:30S 32°60' E 151°53'4 7.3
2017-Aug-21 06:00S 33°04' E 151°53'611.4
2017-Aug-21 05:30S 33°09' E 151°53'510.3
2017-Aug-21 05:00S 33°14' E 151°53'1 2.2
2017-Aug-21 04:29S 33°15' E 151°54'1 1.4
2017-Aug-21 04:00S 33°15' E 151°55'1 1.4
2017-Aug-21 03:29S 33°15' E 151°56'1 1.4
2017-Aug-21 02:50S 33°14' E 151°57'0 1.3
2017-Aug-21 02:29S 33°14' E 151°57'1 1.3
2017-Aug-21 02:00S 33°14' E 151°58'1 1.1
2017-Aug-21 01:29S 33°14' E 151°58'1 1.3
2017-Aug-21 00:59S 33°13' E 151°59'1 1.3
2017-Aug-21 00:05S 33°13' E 152°01'0 1.0
2017-Aug-20 23:53S 33°13' E 152°01'0 1.0
2017-Aug-20 23:29S 33°13' E 152°01'1 1.2
2017-Aug-20 22:59S 33°13' E 152°02'1 1.3
2017-Aug-20 22:30S 33°13' E 152°03'1 1.3
2017-Aug-20 22:00S 33°13' E 152°04'1 1.3
2017-Aug-20 21:30S 33°14' E 152°04'1 1.3
2017-Aug-20 21:00S 33°14' E 152°05'1 1.2
2017-Aug-20 20:28S 33°14' E 152°06'1 1.1
2017-Aug-20 19:55S 33°14' E 152°06'2 0.7
2017-Aug-20 17:41S 33°15' E 152°08'0 0.8
2017-Aug-20 17:29S 33°16' E 152°08'1 0.9
2017-Aug-20 16:56S 33°16' E 152°08'1 1.0
2017-Aug-20 16:16S 33°17' E 152°09'0 0.9
2017-Aug-20 15:59S 33°17' E 152°09'2 1.1
2017-Aug-20 13:57S 33°18' E 152°11'1 1.4
2017-Aug-20 13:21S 33°19' E 152°12'1 1.6
2017-Aug-20 13:00S 33°19' E 152°12'9 3.9
2017-Aug-20 10:49S 33°12' E 152°06'2 5.7
2017-Aug-20 10:30S 33°11' E 152°04'4 6.1
2017-Aug-20 09:50S 33°08' E 152°01'2 5.7
2017-Aug-20 09:30S 33°07' E 151°60'3 5.2
2017-Aug-20 09:00S 33°04' E 151°58'3 5.7
2017-Aug-20 08:30S 33°02' E 151°57'1 2.2
2017-Aug-20 08:00S 33°02' E 151°58'1 2.1
2017-Aug-20 07:30S 33°02' E 151°59'1 2.1
2017-Aug-20 07:00S 33°03' E 152°01'1 2.2
2017-Aug-20 06:30S 33°03' E 152°02'1 2.1
2017-Aug-20 06:00S 33°04' E 152°03'1 2.3
2017-Aug-20 05:30S 33°05' E 152°04'1 2.6
2017-Aug-20 05:00S 33°06' E 152°05'1 2.4
2017-Aug-20 04:30S 33°07' E 152°06'1 2.5
2017-Aug-20 04:00S 33°08' E 152°06'1 2.6
2017-Aug-20 03:30S 33°09' E 152°07'1 2.5
2017-Aug-20 03:00S 33°10' E 152°08'1 2.9
2017-Aug-20 02:30S 33°11' E 152°09'2 2.9
2017-Aug-20 01:58S 33°13' E 152°09'2 3.0
2017-Aug-20 01:26S 33°14' E 152°10'1 2.6
2017-Aug-20 00:59S 33°16' E 152°10'1 2.9
2017-Aug-20 00:30S 33°17' E 152°11'7 1.3
2017-Aug-19 19:05S 33°14' E 152°03'0 2.4
2017-Aug-19 18:55S 33°14' E 152°02'1 3.5
2017-Aug-19 18:30S 33°13' E 152°03'2 3.2
2017-Aug-19 18:00S 33°12' E 152°04'2 3.5
2017-Aug-19 17:30S 33°10' E 152°06'2 3.9
2017-Aug-19 17:00S 33°09' E 152°08'2 3.9
2017-Aug-19 16:30S 33°08' E 152°10'2 3.3
2017-Aug-19 16:00S 33°07' E 152°11'2 3.4
2017-Aug-19 15:30S 33°07' E 152°13'1 2.7
2017-Aug-19 15:00S 33°05' E 152°14'2 2.2
2017-Aug-19 14:00S 33°03' E 152°14'1 3.0
2017-Aug-19 13:30S 33°02' E 152°14'1 1.8
2017-Aug-19 13:00S 33°01' E 152°15'1 2.2
2017-Aug-19 12:30S 33°00' E 152°16'1 2.3
2017-Aug-19 12:00S 32°59' E 152°16'1 2.8
2017-Aug-19 11:30S 32°59' E 152°18'1 1.1
2017-Aug-19 11:00S 32°58' E 152°18'2 3.4
2017-Aug-19 10:30S 32°57' E 152°16'1 2.5
2017-Aug-19 10:00S 32°57' E 152°15'0 0.3
2017-Aug-19 09:30S 32°57' E 152°15'1 2.0
2017-Aug-19 09:00S 32°56' E 152°16'1 1.2
2017-Aug-19 08:30S 32°56' E 152°16'1 2.6
2017-Aug-19 08:00S 32°55' E 152°15'1 2.6
2017-Aug-19 07:30S 32°55' E 152°17'1 2.2
2017-Aug-19 07:00S 32°54' E 152°15'1 3.0
2017-Aug-19 06:30S 32°54' E 152°14'1 1.9
2017-Aug-19 06:00S 32°55' E 152°13'1 2.8
2017-Aug-19 05:30S 32°56' E 152°14'1 2.8
2017-Aug-19 05:00S 32°58' E 152°14'2 3.0
2017-Aug-19 04:30S 32°59' E 152°15'2 3.1
2017-Aug-19 04:00S 33°00' E 152°15'2 3.0
2017-Aug-19 03:30S 33°02' E 152°16'2 3.2
2017-Aug-19 03:00S 33°04' E 152°16'2 3.2
2017-Aug-19 02:30S 33°05' E 152°16'2 3.2
2017-Aug-19 02:00S 33°07' E 152°15'2 3.2
2017-Aug-19 01:30S 33°08' E 152°16'2 3.1
2017-Aug-19 01:00S 33°10' E 152°16'2 3.4
2017-Aug-19 00:30S 33°12' E 152°16'2 3.8
2017-Aug-18 23:59S 33°13' E 152°16'1 2.8
2017-Aug-18 23:30S 33°13' E 152°17'2 4.4
2017-Aug-18 23:00S 33°12' E 152°19'2 4.0
2017-Aug-18 22:30S 33°11' E 152°21'2 4.4
2017-Aug-18 22:00S 33°09' E 152°23'3 4.6
2017-Aug-18 21:18S 33°07' E 152°26'1 4.6
2017-Aug-18 21:00S 33°06' E 152°28'3 5.1
2017-Aug-18 20:26S 33°05' E 152°31'2 5.0
2017-Aug-18 20:00S 33°03' E 152°33'2 4.6
2017-Aug-18 19:28S 33°02' E 152°35'2 4.4
2017-Aug-18 19:00S 33°01' E 152°37'2 4.5
2017-Aug-18 18:30S 32°60' E 152°39'2 4.1
2017-Aug-18 17:59S 32°58' E 152°41'2 4.1
2017-Aug-18 17:30S 32°57' E 152°43'2 3.9
2017-Aug-18 17:00S 32°55' E 152°44'2 4.5
2017-Aug-18 16:29S 32°53' E 152°45'1 1.5
2017-Aug-18 15:58S 32°54' E 152°45'2 4.1
2017-Aug-18 15:30S 32°56' E 152°44'2 4.0
2017-Aug-18 15:00S 32°58' E 152°44'3 4.0
2017-Aug-18 14:23S 32°60' E 152°43'4 4.1
2017-Aug-18 13:27S 33°03' E 152°41'5 4.1
2017-Aug-18 12:09S 33°08' E 152°38'5 4.1
2017-Aug-18 10:52S 33°13' E 152°34'2 4.1
2017-Aug-18 10:27S 33°14' E 152°33'18 0.8
2017-Aug-17 10:45S 33°21' E 152°13'2 2.0
2017-Aug-17 09:50S 33°20' E 152°12'1 1.9
2017-Aug-17 09:29S 33°19' E 152°11'1 1.8
2017-Aug-17 08:50S 33°19' E 152°10'1 1.7
2017-Aug-17 08:06S 33°18' E 152°09'0 1.5
2017-Aug-17 07:47S 33°17' E 152°09'0 1.3
2017-Aug-17 07:29S 33°17' E 152°09'1 1.6
2017-Aug-17 06:58S 33°16' E 152°08'2 4.0
2017-Aug-17 06:30S 33°16' E 152°11'812.8
2017-Aug-17 05:52S 33°20' E 152°19'7 0.4
2017-Aug-16 14:10S 33°17' E 152°13'0 0.3
2017-Aug-16 13:59S 33°17' E 152°13'1 0.8
2017-Aug-16 13:04S 33°16' E 152°12'3 1.1
2017-Aug-16 10:07S 33°15' E 152°08'1 1.4
2017-Aug-16 09:44S 33°14' E 152°08'1 2.5
2017-Aug-16 09:30S 33°14' E 152°08'5 9.6
2017-Aug-16 08:58S 33°14' E 152°14'4 8.0
2017-Aug-16 08:30S 33°15' E 152°18'6 1.6
2017-Aug-16 04:55S 33°19' E 152°13'4 1.8
2017-Aug-16 02:28S 33°20' E 152°08'1 1.5
2017-Aug-16 01:39S 33°19' E 152°07'0 1.7
2017-Aug-16 01:29S 33°19' E 152°07'1 1.8
2017-Aug-16 01:00S 33°18' E 152°07'1 1.5
2017-Aug-16 00:30S 33°17' E 152°06'1 1.3
2017-Aug-16 00:00S 33°17' E 152°06'1 1.5
2017-Aug-15 23:30S 33°16' E 152°06'1 1.9
2017-Aug-15 23:00S 33°15' E 152°05'1 2.2
2017-Aug-15 22:30S 33°14' E 152°05'1 2.3
2017-Aug-15 22:00S 33°13' E 152°04'1 2.4
2017-Aug-15 21:30S 33°12' E 152°04'1 2.6
2017-Aug-15 21:00S 33°11' E 152°04'1 2.5
2017-Aug-15 20:30S 33°10' E 152°04'2 4.1
2017-Aug-15 20:00S 33°08' E 152°02'612.9
2017-Aug-15 19:30S 33°03' E 151°57'4 7.2
2017-Aug-15 19:00S 32°60' E 151°57'714.6
2017-Aug-15 18:30S 32°59' E 152°06'714.7
2017-Aug-15 18:00S 32°57' E 152°14'714.4
2017-Aug-15 17:30S 32°56' E 152°23'714.1
2017-Aug-15 17:00S 32°55' E 152°31'713.4
2017-Aug-15 16:30S 32°54' E 152°39'612.8
2017-Aug-15 16:00S 32°53' E 152°47'612.7
2017-Aug-15 15:30S 32°51' E 152°54'713.3
2017-Aug-15 15:00S 32°48' E 153°00'713.7
2017-Aug-15 14:31S 32°43' E 153°07'714.8
2017-Aug-15 14:01S 32°38' E 153°13'714.6
2017-Aug-15 13:30S 32°34' E 153°20'714.3
2017-Aug-15 13:00S 32°29' E 153°26'  
Track history (hours):
 
Tides and Currents Weather Stations Pressure Air Temp Water Temp Dewpoint Dewpoint Depression Visibility Wind Speed Wind Dir Waves Ship Positions

Carolyn

Last reported at 2017-Aug-22 21:06 UTC. Time now 2017-Sep-24 08:46 UTC.
Position S 32°35' E 152°42'.
Warning: this ship's position is 32 days out of date.

Length 189 m; draft 12.4 m.

Type: Cargo ship. MMSI: 564576000.

Date/timePositionNaut miles runAvg speedWind from/ knotsBaromVisibWave heightAir tempDewpointWater temp
2017-Aug-22 21:06S 32°35' E 152°42'111.1
2017-Aug-22 21:00S 32°35' E 152°41'511.1
2017-Aug-22 20:31S 32°38' E 152°35'510.9
2017-Aug-22 20:01S 32°41' E 152°30'510.6
2017-Aug-22 19:30S 32°45' E 152°25'510.7
2017-Aug-22 19:01S 32°48' E 152°20'510.5
2017-Aug-22 18:30S 32°51' E 152°15'510.1
2017-Aug-22 18:01S 32°54' E 152°10'510.1
2017-Aug-22 17:30S 32°56' E 152°05'510.1
2017-Aug-22 17:00S 32°57' E 151°59'510.8
2017-Aug-22 16:30S 32°57' E 151°52'4 7.6
2017-Aug-22 16:00S 32°55' E 151°48'2 3.6
2017-Aug-22 15:30S 32°54' E 151°46'0 0.3
2017-Aug-22 14:52S 32°54' E 151°46'0 0.0
2017-Aug-22 14:28S 32°54' E 151°46'0 0.0
2017-Aug-22 13:22S 32°54' E 151°46'0 0.0
2017-Aug-22 12:58S 32°54' E 151°46'0 0.0
2017-Aug-22 12:28S 32°54' E 151°46'0 0.0
2017-Aug-22 11:58S 32°54' E 151°46'0 0.0
2017-Aug-22 11:28S 32°54' E 151°46'0 0.0
2017-Aug-22 10:58S 32°54' E 151°46'0 0.0
2017-Aug-22 10:22S 32°54' E 151°46'0 0.0
2017-Aug-22 09:58S 32°54' E 151°46'0 0.0
2017-Aug-22 09:16S 32°54' E 151°46'0 0.0
2017-Aug-22 08:58S 32°54' E 151°46'0 0.0
2017-Aug-22 08:22S 32°54' E 151°46'0 0.0
2017-Aug-22 07:46S 32°54' E 151°46'0 0.0
2017-Aug-22 07:22S 32°54' E 151°46'0 0.0
2017-Aug-22 06:58S 32°54' E 151°46'0 0.0
2017-Aug-22 06:28S 32°54' E 151°46'0 0.0
2017-Aug-22 05:58S 32°54' E 151°46'0 0.0
2017-Aug-22 05:28S 32°54' E 151°46'0 0.0
2017-Aug-22 04:58S 32°54' E 151°46'0 0.0
2017-Aug-22 03:04S 32°54' E 151°46'0 0.0
2017-Aug-22 02:58S 32°54' E 151°46'0 0.0
2017-Aug-22 02:28S 32°54' E 151°46'0 0.0
2017-Aug-22 01:55S 32°54' E 151°46'0 0.0
2017-Aug-22 01:25S 32°54' E 151°46'0 0.0
2017-Aug-22 00:58S 32°54' E 151°46'0 0.0
2017-Aug-22 00:28S 32°54' E 151°46'0 0.0
2017-Aug-21 23:58S 32°54' E 151°46'0 0.0
2017-Aug-21 23:28S 32°54' E 151°46'0 0.0
2017-Aug-21 22:49S 32°54' E 151°46'0 0.0
2017-Aug-21 22:28S 32°54' E 151°46'0 0.0
2017-Aug-21 21:58S 32°54' E 151°46'0 0.0
2017-Aug-21 21:28S 32°54' E 151°46'0 0.0
2017-Aug-21 20:58S 32°54' E 151°46'0 0.0
2017-Aug-21 20:28S 32°54' E 151°46'0 0.0
2017-Aug-21 19:58S 32°54' E 151°46'0 0.0
2017-Aug-21 19:28S 32°54' E 151°46'0 0.0
2017-Aug-21 18:58S 32°54' E 151°46'0 0.0
2017-Aug-21 18:28S 32°54' E 151°46'0 0.0
2017-Aug-21 17:58S 32°54' E 151°46'0 0.0
2017-Aug-21 17:25S 32°54' E 151°46'0 0.0
2017-Aug-21 16:58S 32°54' E 151°46'0 0.0
2017-Aug-21 16:28S 32°54' E 151°46'0 0.0
2017-Aug-21 15:58S 32°54' E 151°46'0 0.0
2017-Aug-21 15:28S 32°54' E 151°46'0 0.0
2017-Aug-21 14:58S 32°54' E 151°46'0 0.0
2017-Aug-21 14:28S 32°54' E 151°46'0 0.0
2017-Aug-21 13:58S 32°54' E 151°46'0 0.0
2017-Aug-21 13:28S 32°54' E 151°46'0 0.0
2017-Aug-21 12:58S 32°54' E 151°46'0 0.0
2017-Aug-21 12:28S 32°54' E 151°46'0 0.0
2017-Aug-21 11:58S 32°54' E 151°46'0 0.0
2017-Aug-21 11:28S 32°54' E 151°46'0 0.0
2017-Aug-21 10:58S 32°54' E 151°46'0 0.0
2017-Aug-21 10:28S 32°54' E 151°46'0 0.0
2017-Aug-21 09:58S 32°54' E 151°46'0 0.0
2017-Aug-21 09:28S 32°54' E 151°46'0 0.0
2017-Aug-21 08:58S 32°54' E 151°46'0 0.0
2017-Aug-21 08:28S 32°54' E 151°46'0 0.3
2017-Aug-21 08:00S 32°54' E 151°46'2 4.4
2017-Aug-21 07:30S 32°55' E 151°49'4 8.0
2017-Aug-21 07:00S 32°58' E 151°52'2 4.7
2017-Aug-21 06:30S 32°60' E 151°53'4 7.3
2017-Aug-21 06:00S 33°04' E 151°53'611.4
2017-Aug-21 05:30S 33°09' E 151°53'510.3
2017-Aug-21 05:00S 33°14' E 151°53'1 2.2
2017-Aug-21 04:29S 33°15' E 151°54'1 1.4
2017-Aug-21 04:00S 33°15' E 151°55'1 1.4
2017-Aug-21 03:29S 33°15' E 151°56'1 1.4
2017-Aug-21 02:50S 33°14' E 151°57'0 1.3
2017-Aug-21 02:29S 33°14' E 151°57'1 1.3
2017-Aug-21 02:00S 33°14' E 151°58'1 1.1
2017-Aug-21 01:29S 33°14' E 151°58'1 1.3
2017-Aug-21 00:59S 33°13' E 151°59'1 1.3
2017-Aug-21 00:05S 33°13' E 152°01'0 1.0
2017-Aug-20 23:53S 33°13' E 152°01'0 1.0
2017-Aug-20 23:29S 33°13' E 152°01'1 1.2
2017-Aug-20 22:59S 33°13' E 152°02'1 1.3
2017-Aug-20 22:30S 33°13' E 152°03'1 1.3
2017-Aug-20 22:00S 33°13' E 152°04'1 1.3
2017-Aug-20 21:30S 33°14' E 152°04'1 1.3
2017-Aug-20 21:00S 33°14' E 152°05'1 1.2
2017-Aug-20 20:28S 33°14' E 152°06'1 1.1
2017-Aug-20 19:55S 33°14' E 152°06'2 0.7
2017-Aug-20 17:41S 33°15' E 152°08'0 0.8
2017-Aug-20 17:29S 33°16' E 152°08'1 0.9
2017-Aug-20 16:56S 33°16' E 152°08'1 1.0
2017-Aug-20 16:16S 33°17' E 152°09'0 0.9
2017-Aug-20 15:59S 33°17' E 152°09'2 1.1
2017-Aug-20 13:57S 33°18' E 152°11'1 1.4
2017-Aug-20 13:21S 33°19' E 152°12'1 1.6
2017-Aug-20 13:00S 33°19' E 152°12'9 3.9
2017-Aug-20 10:49S 33°12' E 152°06'2 5.7
2017-Aug-20 10:30S 33°11' E 152°04'4 6.1
2017-Aug-20 09:50S 33°08' E 152°01'2 5.7
2017-Aug-20 09:30S 33°07' E 151°60'3 5.2
2017-Aug-20 09:00S 33°04' E 151°58'3 5.7
2017-Aug-20 08:30S 33°02' E 151°57'1 2.2
2017-Aug-20 08:00S 33°02' E 151°58'1 2.1
2017-Aug-20 07:30S 33°02' E 151°59'1 2.1
2017-Aug-20 07:00S 33°03' E 152°01'1 2.2
2017-Aug-20 06:30S 33°03' E 152°02'1 2.1
2017-Aug-20 06:00S 33°04' E 152°03'1 2.3
2017-Aug-20 05:30S 33°05' E 152°04'1 2.6
2017-Aug-20 05:00S 33°06' E 152°05'1 2.4
2017-Aug-20 04:30S 33°07' E 152°06'1 2.5
2017-Aug-20 04:00S 33°08' E 152°06'1 2.6
2017-Aug-20 03:30S 33°09' E 152°07'1 2.5
2017-Aug-20 03:00S 33°10' E 152°08'1 2.9
2017-Aug-20 02:30S 33°11' E 152°09'2 2.9
2017-Aug-20 01:58S 33°13' E 152°09'2 3.0
2017-Aug-20 01:26S 33°14' E 152°10'1 2.6
2017-Aug-20 00:59S 33°16' E 152°10'1 2.9
2017-Aug-20 00:30S 33°17' E 152°11'7 1.3
2017-Aug-19 19:05S 33°14' E 152°03'0 2.4
2017-Aug-19 18:55S 33°14' E 152°02'1 3.5
2017-Aug-19 18:30S 33°13' E 152°03'2 3.2
2017-Aug-19 18:00S 33°12' E 152°04'2 3.5
2017-Aug-19 17:30S 33°10' E 152°06'2 3.9
2017-Aug-19 17:00S 33°09' E 152°08'2 3.9
2017-Aug-19 16:30S 33°08' E 152°10'2 3.3
2017-Aug-19 16:00S 33°07' E 152°11'2 3.4
2017-Aug-19 15:30S 33°07' E 152°13'1 2.7
2017-Aug-19 15:00S 33°05' E 152°14'2 2.2
2017-Aug-19 14:00S 33°03' E 152°14'1 3.0
2017-Aug-19 13:30S 33°02' E 152°14'1 1.8
2017-Aug-19 13:00S 33°01' E 152°15'1 2.2
2017-Aug-19 12:30S 33°00' E 152°16'1 2.3
2017-Aug-19 12:00S 32°59' E 152°16'1 2.8
2017-Aug-19 11:30S 32°59' E 152°18'1 1.1
2017-Aug-19 11:00S 32°58' E 152°18'2 3.4
2017-Aug-19 10:30S 32°57' E 152°16'1 2.5
2017-Aug-19 10:00S 32°57' E 152°15'0 0.3
2017-Aug-19 09:30S 32°57' E 152°15'1 2.0
2017-Aug-19 09:00S 32°56' E 152°16'1 1.2
2017-Aug-19 08:30S 32°56' E 152°16'1 2.6
2017-Aug-19 08:00S 32°55' E 152°15'1 2.6
2017-Aug-19 07:30S 32°55' E 152°17'1 2.2
2017-Aug-19 07:00S 32°54' E 152°15'1 3.0
2017-Aug-19 06:30S 32°54' E 152°14'1 1.9
2017-Aug-19 06:00S 32°55' E 152°13'1 2.8
2017-Aug-19 05:30S 32°56' E 152°14'1 2.8
2017-Aug-19 05:00S 32°58' E 152°14'2 3.0
2017-Aug-19 04:30S 32°59' E 152°15'2 3.1
2017-Aug-19 04:00S 33°00' E 152°15'2 3.0
2017-Aug-19 03:30S 33°02' E 152°16'2 3.2
2017-Aug-19 03:00S 33°04' E 152°16'2 3.2
2017-Aug-19 02:30S 33°05' E 152°16'2 3.2
2017-Aug-19 02:00S 33°07' E 152°15'2 3.2
2017-Aug-19 01:30S 33°08' E 152°16'2 3.1
2017-Aug-19 01:00S 33°10' E 152°16'2 3.4
2017-Aug-19 00:30S 33°12' E 152°16'2 3.8
2017-Aug-18 23:59S 33°13' E 152°16'1 2.8
2017-Aug-18 23:30S 33°13' E 152°17'2 4.4
2017-Aug-18 23:00S 33°12' E 152°19'2 4.0
2017-Aug-18 22:30S 33°11' E 152°21'2 4.4
2017-Aug-18 22:00S 33°09' E 152°23'3 4.6
2017-Aug-18 21:18S 33°07' E 152°26'1 4.6
2017-Aug-18 21:00S 33°06' E 152°28'3 5.1
2017-Aug-18 20:26S 33°05' E 152°31'2 5.0
2017-Aug-18 20:00S 33°03' E 152°33'2 4.6
2017-Aug-18 19:28S 33°02' E 152°35'2 4.4
2017-Aug-18 19:00S 33°01' E 152°37'2 4.5
2017-Aug-18 18:30S 32°60' E 152°39'2 4.1
2017-Aug-18 17:59S 32°58' E 152°41'2 4.1
2017-Aug-18 17:30S 32°57' E 152°43'2 3.9
2017-Aug-18 17:00S 32°55' E 152°44'2 4.5
2017-Aug-18 16:29S 32°53' E 152°45'1 1.5
2017-Aug-18 15:58S 32°54' E 152°45'2 4.1
2017-Aug-18 15:30S 32°56' E 152°44'2 4.0
2017-Aug-18 15:00S 32°58' E 152°44'3 4.0
2017-Aug-18 14:23S 32°60' E 152°43'4 4.1
2017-Aug-18 13:27S 33°03' E 152°41'5 4.1
2017-Aug-18 12:09S 33°08' E 152°38'5 4.1
2017-Aug-18 10:52S 33°13' E 152°34'2 4.1
2017-Aug-18 10:27S 33°14' E 152°33'18 0.8
2017-Aug-17 10:45S 33°21' E 152°13'2 2.0
2017-Aug-17 09:50S 33°20' E 152°12'1 1.9
2017-Aug-17 09:29S 33°19' E 152°11'1 1.8
2017-Aug-17 08:50S 33°19' E 152°10'1 1.7
2017-Aug-17 08:06S 33°18' E 152°09'0 1.5
2017-Aug-17 07:47S 33°17' E 152°09'0 1.3
2017-Aug-17 07:29S 33°17' E 152°09'1 1.6
2017-Aug-17 06:58S 33°16' E 152°08'2 4.0
2017-Aug-17 06:30S 33°16' E 152°11'812.8
2017-Aug-17 05:52S 33°20' E 152°19'7 0.4
2017-Aug-16 14:10S 33°17' E 152°13'0 0.3
2017-Aug-16 13:59S 33°17' E 152°13'1 0.8
2017-Aug-16 13:04S 33°16' E 152°12'3 1.1
2017-Aug-16 10:07S 33°15' E 152°08'1 1.4
2017-Aug-16 09:44S 33°14' E 152°08'1 2.5
2017-Aug-16 09:30S 33°14' E 152°08'5 9.6
2017-Aug-16 08:58S 33°14' E 152°14'4 8.0
2017-Aug-16 08:30S 33°15' E 152°18'6 1.6
2017-Aug-16 04:55S 33°19' E 152°13'4 1.8
2017-Aug-16 02:28S 33°20' E 152°08'1 1.5
2017-Aug-16 01:39S 33°19' E 152°07'0 1.7
2017-Aug-16 01:29S 33°19' E 152°07'1 1.8
2017-Aug-16 01:00S 33°18' E 152°07'1 1.5
2017-Aug-16 00:30S 33°17' E 152°06'1 1.3
2017-Aug-16 00:00S 33°17' E 152°06'1 1.5
2017-Aug-15 23:30S 33°16' E 152°06'1 1.9
2017-Aug-15 23:00S 33°15' E 152°05'1 2.2
2017-Aug-15 22:30S 33°14' E 152°05'1 2.3
2017-Aug-15 22:00S 33°13' E 152°04'1 2.4
2017-Aug-15 21:30S 33°12' E 152°04'1 2.6
2017-Aug-15 21:00S 33°11' E 152°04'1 2.5
2017-Aug-15 20:30S 33°10' E 152°04'2 4.1
2017-Aug-15 20:00S 33°08' E 152°02'612.9
2017-Aug-15 19:30S 33°03' E 151°57'4 7.2
2017-Aug-15 19:00S 32°60' E 151°57'714.6
2017-Aug-15 18:30S 32°59' E 152°06'714.7
2017-Aug-15 18:00S 32°57' E 152°14'714.4
2017-Aug-15 17:30S 32°56' E 152°23'714.1
2017-Aug-15 17:00S 32°55' E 152°31'713.4
2017-Aug-15 16:30S 32°54' E 152°39'612.8
2017-Aug-15 16:00S 32°53' E 152°47'612.7
2017-Aug-15 15:30S 32°51' E 152°54'713.3
2017-Aug-15 15:00S 32°48' E 153°00'713.7
2017-Aug-15 14:31S 32°43' E 153°07'714.8
2017-Aug-15 14:01S 32°38' E 153°13'714.6
2017-Aug-15 13:30S 32°34' E 153°20'714.3
2017-Aug-15 13:00S 32°29' E 153°26'  

Dump ship's entire track history